Ausable Chasm, NY

8:36 PM EST on February 26, 2015 (GMT -0500)
Lake Champlain South Valcour | Change Station
CLOSE
Current Station
Personal Weather Station
Location: Peru, NY
Elevation: 92 ft
Nearby Weather Stations

Elev 92 ft 44.60 °N, 73.44 °W | Updated 2 minutes ago

Mostly Cloudy
Mostly Cloudy
4.1 °F
Feels Like 4 °F
N
0.0
Wind Variable Wind from West

Today
High -- | Low -- °F
--% Chance of Precip.
Yesterday
High -- | Low -- °F
Precip. -- in
6:36 AM 5:37 PM
Waxing Gibbous, 64% visible
Pressure 30.19 in
Visibility 10.0 miles
Clouds Overcast 11000 ft
Windchill 4 °F
Dew Point -5 °F
Humidity 64%
Rainfall 0.00 in
Snow Depth Not available.
UV 0 out of 12
Pollen .30 out of 12
Air Quality Not available.
Flu Activity Not available.
METAR KPBG 270053Z AUTO 00000KT 10SM OVC110 M16/M21 A3017 RMK AO2 SLP223 T11561206

More Conditions Fewer Conditions

Pressure 30.19 in
Visibility 10.0 miles
Clouds Overcast 11000 ft
Windchill 4 °F
Dew Point -5 °F
Humidity 64%
Rainfall 0.00 in
Snow Depth Not available.
UV 0 out of 12
Pollen .30 out of 12
Air Quality Not available.
Flu Activity Not available.
METAR KPBG 270053Z AUTO 00000KT 10SM OVC110 M16/M21 A3017 RMK AO2 SLP223 T11561206

More Conditions Fewer Conditions

10-Day Weather Forecast

Almanac

Astronomy

Feb. 26, 2015 Rise Set
Actual Time
Civil Twilight
Nautical Twilight
Astronomical Twilight
Moon
Length of Visible Light
Length of Day
Tomorrow will be .
, % of the Moon is Illuminated

Today's Extremes

State Highs State Lows

Community

WunderPhotos

Upload Photos

1,800,553 photos uploaded!

WunderBlogs® & News

Nearby

Air Quality

  Air Quality AQ Index Pollutant
Not available.

Snow Depth

Station Depth Elevation

Earthquake Activity

City Distance Mag. Time & Date
Minimum magnitude displayed is 2.5.

Coastal Water Temperatures

Place Temperature

Nearby Weather Stations